LHA296 LSZH-LEPA
Flight info
| Callsign | LHA296 |
|---|---|
| Flight time | 1h 29m |
| Altitude | 41000 |
| Route | VEBIT T50 ROTOS Z669 ULMES DCT VADAR DCT GEVEA DCT BALSI DCT RETNO DCT TUPOX DCT MTG DCT DIVKO DCT VATIR N852 VERSO L129 LUNIK |
| Aircraft | A359/M-SDE1E2FGIJ1RWYZE3/S |
Departure
| Time | 2026-05-04 07:02 |
|---|---|
| Airport | Zürich Airport (LSZH) |
Arrival
| Time | 2026-05-04 08:31 |
|---|---|
| Airport | Palma de Mallorca Airport (LEPA) |
| Time | Latitude | Longitude | Altitude | Speed | Heading |
|---|---|---|---|---|---|
| 2026-05-04 06:49 | 47.45340 | 8.55699 | 1413 ft | 0 kts | 6° |
| 2026-05-04 06:52 | 47.45342 | 8.55700 | 1413 ft | 3 kts | 7° |
| 2026-05-04 06:52 | 47.45316 | 8.55694 | 1418 ft | 4 kts | 356° |
| 2026-05-04 06:53 | 47.45292 | 8.55703 | 1419 ft | 4 kts | 334° |
| 2026-05-04 06:53 | 47.45271 | 8.55725 | 1413 ft | 4 kts | 304° |
| 2026-05-04 06:53 | 47.45263 | 8.55753 | 1413 ft | 0 kts | 276° |
| 2026-05-04 06:53 | 47.45265 | 8.55732 | 1413 ft | 0 kts | 276° |
| 2026-05-04 06:56 | 47.45268 | 8.55686 | 1413 ft | 8 kts | 275° |
| 2026-05-04 06:57 | 47.45977 | 8.54972 | 1404 ft | 27 kts | 335° |
| 2026-05-04 06:58 | 47.46154 | 8.54850 | 1405 ft | 29 kts | 335° |
| 2026-05-04 06:58 | 47.46339 | 8.54723 | 1401 ft | 31 kts | 335° |
| 2026-05-04 06:58 | 47.46488 | 8.54620 | 1405 ft | 15 kts | 335° |
| 2026-05-04 06:58 | 47.46587 | 8.54552 | 1404 ft | 17 kts | 335° |
| 2026-05-04 06:59 | 47.46702 | 8.54476 | 1401 ft | 20 kts | 337° |
| 2026-05-04 06:59 | 47.46841 | 8.54389 | 1385 ft | 23 kts | 337° |
| 2026-05-04 06:59 | 47.46986 | 8.54287 | 1385 ft | 23 kts | 335° |
| 2026-05-04 06:59 | 47.47135 | 8.54187 | 1401 ft | 24 kts | 336° |
| 2026-05-04 07:01 | 47.47369 | 8.53734 | 1405 ft | 48 kts | 157° |
| 2026-05-04 07:01 | 47.46831 | 8.54105 | 1387 ft | 117 kts | 155° |
| 2026-05-04 07:02 | 47.45934 | 8.54727 | 1413 ft | 170 kts | 155° |
| 2026-05-04 07:02 | 47.44840 | 8.55505 | 2073 ft | 168 kts | 154° |
| 2026-05-04 07:02 | 47.43831 | 8.56315 | 2817 ft | 170 kts | 143° |
| 2026-05-04 07:02 | 47.43243 | 8.57780 | 3424 ft | 170 kts | 97° |
| 2026-05-04 07:03 | 47.43513 | 8.59518 | 3773 ft | 184 kts | 54° |
| 2026-05-04 07:03 | 47.44586 | 8.60614 | 4110 ft | 201 kts | 14° |
| 2026-05-04 07:03 | 47.45997 | 8.60398 | 4626 ft | 215 kts | 336° |
| 2026-05-04 07:03 | 47.47082 | 8.58800 | 5157 ft | 231 kts | 297° |
| 2026-05-04 07:04 | 47.47308 | 8.56435 | 5906 ft | 238 kts | 261° |
| 2026-05-04 07:04 | 47.46670 | 8.54167 | 6696 ft | 240 kts | 239° |
| 2026-05-04 07:04 | 47.45813 | 8.52046 | 7520 ft | 241 kts | 237° |
| 2026-05-04 07:04 | 47.44925 | 8.49853 | 8127 ft | 258 kts | 237° |
| 2026-05-04 07:05 | 47.43986 | 8.47475 | 8689 ft | 275 kts | 238° |
| 2026-05-04 07:05 | 47.43042 | 8.45034 | 9577 ft | 279 kts | 237° |
| 2026-05-04 07:05 | 47.42073 | 8.42535 | 10448 ft | 283 kts | 237° |
| 2026-05-04 07:05 | 47.41053 | 8.39932 | 10921 ft | 303 kts | 237° |
| 2026-05-04 07:06 | 47.38814 | 8.34242 | 12006 ft | 332 kts | 237° |
| 2026-05-04 07:06 | 47.37703 | 8.31233 | 12915 ft | 335 kts | 240° |
| 2026-05-04 07:06 | 47.36634 | 8.28169 | 13866 ft | 336 kts | 240° |
| 2026-05-04 07:07 | 47.35557 | 8.25093 | 14622 ft | 340 kts | 240° |
| 2026-05-04 07:08 | 47.27552 | 8.02528 | 19504 ft | 369 kts | 240° |
| 2026-05-04 07:09 | 47.26420 | 7.99110 | 20172 ft | 373 kts | 243° |
| 2026-05-04 07:09 | 47.25374 | 7.95589 | 20851 ft | 377 kts | 245° |
| 2026-05-04 07:09 | 47.24368 | 7.91996 | 21505 ft | 382 kts | 246° |
| 2026-05-04 07:09 | 47.23372 | 7.88352 | 22165 ft | 386 kts | 246° |
| 2026-05-04 07:10 | 47.22365 | 7.84662 | 22817 ft | 390 kts | 246° |
| 2026-05-04 07:10 | 47.21343 | 7.80946 | 23465 ft | 394 kts | 246° |
| 2026-05-04 07:12 | 47.10739 | 7.57130 | 27537 ft | 407 kts | 230° |
| 2026-05-04 07:12 | 47.08956 | 7.53881 | 28102 ft | 409 kts | 230° |
| 2026-05-04 07:12 | 47.07163 | 7.50606 | 28615 ft | 412 kts | 230° |
| 2026-05-04 07:12 | 47.05368 | 7.47315 | 29182 ft | 415 kts | 231° |
| 2026-05-04 07:13 | 47.03563 | 7.44001 | 29683 ft | 417 kts | 231° |
| 2026-05-04 07:13 | 47.01749 | 7.40665 | 30169 ft | 420 kts | 231° |
| 2026-05-04 07:13 | 46.99924 | 7.37315 | 30653 ft | 421 kts | 231° |
| 2026-05-04 07:14 | 46.92557 | 7.23886 | 32414 ft | 426 kts | 231° |
| 2026-05-04 07:14 | 46.90697 | 7.20496 | 32830 ft | 427 kts | 231° |
| 2026-05-04 07:15 | 46.88833 | 7.17103 | 33172 ft | 429 kts | 231° |
| 2026-05-04 07:15 | 46.86960 | 7.13697 | 33526 ft | 431 kts | 231° |
| 2026-05-04 07:15 | 46.85079 | 7.10281 | 33871 ft | 432 kts | 231° |
| 2026-05-04 07:15 | 46.83189 | 7.06854 | 34177 ft | 434 kts | 231° |
| 2026-05-04 07:16 | 46.81289 | 7.03411 | 34403 ft | 437 kts | 231° |
| 2026-05-04 07:16 | 46.79374 | 6.99945 | 34673 ft | 438 kts | 231° |
| 2026-05-04 07:16 | 46.77461 | 6.96487 | 34935 ft | 439 kts | 231° |
| 2026-05-04 07:16 | 46.75532 | 6.93005 | 35181 ft | 441 kts | 231° |
| 2026-05-04 07:17 | 46.73601 | 6.89522 | 35476 ft | 441 kts | 231° |
| 2026-05-04 07:17 | 46.71669 | 6.86043 | 35819 ft | 441 kts | 231° |
| 2026-05-04 07:17 | 46.69762 | 6.82614 | 36082 ft | 442 kts | 231° |
| 2026-05-04 07:17 | 46.67801 | 6.79092 | 36316 ft | 443 kts | 231° |
| 2026-05-04 07:18 | 46.65878 | 6.75643 | 36549 ft | 444 kts | 231° |
| 2026-05-04 07:18 | 46.63897 | 6.72191 | 36815 ft | 445 kts | 229° |
| 2026-05-04 07:18 | 46.61803 | 6.68862 | 37061 ft | 445 kts | 226° |
| 2026-05-04 07:18 | 46.59660 | 6.65615 | 37311 ft | 446 kts | 226° |
| 2026-05-04 07:19 | 46.57494 | 6.62371 | 37555 ft | 447 kts | 226° |
| 2026-05-04 07:19 | 46.55332 | 6.59120 | 37791 ft | 448 kts | 226° |
| 2026-05-04 07:19 | 46.53177 | 6.55850 | 38031 ft | 448 kts | 226° |
| 2026-05-04 07:19 | 46.51025 | 6.52556 | 38264 ft | 449 kts | 227° |
| 2026-05-04 07:20 | 46.48881 | 6.49257 | 38493 ft | 449 kts | 227° |
| 2026-05-04 07:20 | 46.46737 | 6.45951 | 38699 ft | 450 kts | 227° |
| 2026-05-04 07:20 | 46.44594 | 6.42646 | 38944 ft | 448 kts | 227° |
| 2026-05-04 07:20 | 46.42470 | 6.39373 | 39290 ft | 445 kts | 227° |
| 2026-05-04 07:22 | 46.27184 | 6.16949 | 40367 ft | 451 kts | 216° |
| 2026-05-04 07:22 | 46.24506 | 6.14584 | 40474 ft | 453 kts | 208° |
| 2026-05-04 07:23 | 46.18523 | 6.11643 | 40698 ft | 458 kts | 193° |
| 2026-05-04 07:23 | 46.15381 | 6.10825 | 40806 ft | 459 kts | 192° |
| 2026-05-04 07:23 | 46.12219 | 6.10118 | 40927 ft | 460 kts | 191° |
| 2026-05-04 07:24 | 46.09048 | 6.09455 | 41045 ft | 461 kts | 191° |
| 2026-05-04 07:24 | 46.05863 | 6.08795 | 41043 ft | 464 kts | 191° |
| 2026-05-04 07:24 | 45.99512 | 6.07447 | 41038 ft | 463 kts | 191° |
| 2026-05-04 07:26 | 45.74003 | 6.01825 | 41039 ft | 463 kts | 192° |
| 2026-05-04 07:27 | 45.67665 | 6.00434 | 41051 ft | 463 kts | 192° |
| 2026-05-04 07:27 | 45.61286 | 5.99037 | 41042 ft | 463 kts | 192° |
| 2026-05-04 07:28 | 45.54910 | 5.97643 | 41044 ft | 463 kts | 192° |
| 2026-05-04 07:28 | 45.48533 | 5.96253 | 41042 ft | 463 kts | 192° |
| 2026-05-04 07:29 | 45.42196 | 5.94598 | 41031 ft | 462 kts | 195° |
| 2026-05-04 07:29 | 45.35925 | 5.92522 | 41031 ft | 462 kts | 196° |
| 2026-05-04 07:30 | 45.29652 | 5.90456 | 41032 ft | 462 kts | 195° |
| 2026-05-04 07:30 | 45.23376 | 5.88469 | 41032 ft | 462 kts | 195° |
| 2026-05-04 07:31 | 45.17131 | 5.86532 | 41034 ft | 463 kts | 195° |
| 2026-05-04 07:33 | 44.91978 | 5.78779 | 41050 ft | 461 kts | 195° |
| 2026-05-04 07:33 | 44.85696 | 5.76851 | 41051 ft | 461 kts | 195° |
| 2026-05-04 07:34 | 44.79434 | 5.74934 | 41050 ft | 460 kts | 195° |
| 2026-05-04 07:34 | 44.73213 | 5.73037 | 41065 ft | 459 kts | 195° |
| 2026-05-04 07:35 | 44.66970 | 5.71133 | 41061 ft | 459 kts | 195° |
| 2026-05-04 07:35 | 44.60736 | 5.69234 | 41073 ft | 457 kts | 195° |
| 2026-05-04 07:36 | 44.54514 | 5.67344 | 41085 ft | 457 kts | 195° |
| 2026-05-04 07:38 | 44.30114 | 5.58084 | 41087 ft | 453 kts | 204° |
| 2026-05-04 07:38 | 44.24239 | 5.54846 | 41095 ft | 454 kts | 204° |
| 2026-05-04 07:39 | 44.18352 | 5.51604 | 41093 ft | 454 kts | 204° |
| 2026-05-04 07:39 | 44.12463 | 5.48386 | 41091 ft | 454 kts | 204° |
| 2026-05-04 07:40 | 44.07567 | 5.45723 | 41077 ft | 454 kts | 204° |
| 2026-05-04 07:40 | 44.06230 | 5.44997 | 41079 ft | 454 kts | 204° |
| 2026-05-04 07:41 | 44.00336 | 5.41801 | 41078 ft | 454 kts | 204° |
| 2026-05-04 07:41 | 43.95444 | 5.39148 | 41080 ft | 455 kts | 204° |
| 2026-05-04 07:42 | 43.89545 | 5.35955 | 41049 ft | 455 kts | 204° |
| 2026-05-04 07:42 | 43.83635 | 5.32766 | 41054 ft | 456 kts | 204° |
| 2026-05-04 07:43 | 43.77755 | 5.29599 | 41030 ft | 455 kts | 204° |
| 2026-05-04 07:43 | 43.71843 | 5.26420 | 41028 ft | 455 kts | 204° |
| 2026-05-04 07:44 | 43.65931 | 5.23249 | 41020 ft | 455 kts | 205° |
| 2026-05-04 07:44 | 43.60063 | 5.20108 | 41021 ft | 455 kts | 205° |
| 2026-05-04 07:45 | 43.54163 | 5.16955 | 41020 ft | 455 kts | 205° |
| 2026-05-04 07:45 | 43.48257 | 5.13806 | 41019 ft | 454 kts | 205° |
| 2026-05-04 07:46 | 43.42364 | 5.10671 | 41020 ft | 454 kts | 205° |
| 2026-05-04 07:46 | 43.36758 | 5.06835 | 41024 ft | 449 kts | 215° |
| 2026-05-04 07:47 | 43.31559 | 5.02104 | 41003 ft | 448 kts | 217° |
| 2026-05-04 07:49 | 43.11158 | 4.82868 | 41002 ft | 445 kts | 217° |
| 2026-05-04 07:49 | 43.06030 | 4.78140 | 41005 ft | 445 kts | 214° |
| 2026-05-04 07:50 | 43.00656 | 4.73906 | 41007 ft | 446 kts | 213° |
| 2026-05-04 07:50 | 42.95230 | 4.69785 | 41001 ft | 446 kts | 212° |
| 2026-05-04 07:51 | 42.89781 | 4.65680 | 40996 ft | 446 kts | 212° |
| 2026-05-04 07:51 | 42.84351 | 4.61588 | 40999 ft | 446 kts | 212° |
| 2026-05-04 07:52 | 42.78949 | 4.57517 | 40997 ft | 446 kts | 212° |
| 2026-05-04 07:52 | 42.73490 | 4.53410 | 40986 ft | 445 kts | 212° |
| 2026-05-04 07:54 | 42.51845 | 4.37209 | 40969 ft | 444 kts | 212° |
| 2026-05-04 07:55 | 42.46450 | 4.33192 | 40977 ft | 444 kts | 212° |
| 2026-05-04 07:55 | 42.41036 | 4.29167 | 40979 ft | 444 kts | 212° |
| 2026-05-04 07:56 | 42.35620 | 4.25149 | 40977 ft | 444 kts | 212° |
| 2026-05-04 07:56 | 42.30209 | 4.21143 | 40970 ft | 444 kts | 212° |
| 2026-05-04 07:57 | 42.24785 | 4.17136 | 40978 ft | 444 kts | 212° |
| 2026-05-04 07:57 | 42.19365 | 4.13139 | 40980 ft | 443 kts | 212° |
| 2026-05-04 07:58 | 42.13981 | 4.09171 | 40971 ft | 443 kts | 212° |
| 2026-05-04 07:58 | 42.08560 | 4.05191 | 40969 ft | 443 kts | 212° |
| 2026-05-04 07:59 | 42.03143 | 4.01225 | 40975 ft | 442 kts | 212° |
| 2026-05-04 07:59 | 41.97736 | 3.97271 | 40975 ft | 442 kts | 212° |
| 2026-05-04 08:00 | 41.92153 | 3.93739 | 40974 ft | 448 kts | 203° |
| 2026-05-04 08:02 | 41.67427 | 3.87607 | 40986 ft | 452 kts | 195° |
| 2026-05-04 08:02 | 41.61220 | 3.86188 | 40986 ft | 452 kts | 195° |
| 2026-05-04 08:03 | 41.55024 | 3.84765 | 40973 ft | 452 kts | 195° |
| 2026-05-04 08:03 | 41.48870 | 3.83351 | 40970 ft | 452 kts | 196° |
| 2026-05-04 08:04 | 41.42675 | 3.81931 | 40980 ft | 452 kts | 196° |
| 2026-05-04 08:04 | 41.36471 | 3.80513 | 40984 ft | 452 kts | 195° |
| 2026-05-04 08:05 | 41.33393 | 3.79814 | 40592 ft | 447 kts | 196° |
| 2026-05-04 08:05 | 41.30330 | 3.79118 | 39959 ft | 446 kts | 196° |
| 2026-05-04 08:05 | 41.27274 | 3.78423 | 39347 ft | 445 kts | 196° |
| 2026-05-04 08:05 | 41.24225 | 3.77731 | 38777 ft | 442 kts | 197° |
| 2026-05-04 08:06 | 41.21198 | 3.77043 | 38062 ft | 440 kts | 197° |
| 2026-05-04 08:06 | 41.18209 | 3.76363 | 37249 ft | 441 kts | 196° |
| 2026-05-04 08:06 | 41.15230 | 3.75473 | 36365 ft | 436 kts | 204° |
| 2026-05-04 08:06 | 41.12375 | 3.74132 | 35523 ft | 435 kts | 206° |
| 2026-05-04 08:08 | 40.92546 | 3.63986 | 30277 ft | 425 kts | 206° |
| 2026-05-04 08:08 | 40.89797 | 3.62577 | 29719 ft | 420 kts | 206° |
| 2026-05-04 08:10 | 40.69180 | 3.52044 | 25790 ft | 379 kts | 205° |
| 2026-05-04 08:11 | 40.66727 | 3.50795 | 25314 ft | 375 kts | 205° |
| 2026-05-04 08:11 | 40.61903 | 3.48341 | 24360 ft | 369 kts | 205° |
| 2026-05-04 08:11 | 40.59517 | 3.47129 | 23888 ft | 366 kts | 205° |
| 2026-05-04 08:12 | 40.57143 | 3.45924 | 23388 ft | 364 kts | 205° |
| 2026-05-04 08:12 | 40.54788 | 3.44730 | 22872 ft | 360 kts | 205° |
| 2026-05-04 08:12 | 40.52471 | 3.43556 | 22385 ft | 356 kts | 205° |
| 2026-05-04 08:12 | 40.50199 | 3.42406 | 21925 ft | 352 kts | 205° |
| 2026-05-04 08:13 | 40.47920 | 3.41253 | 21459 ft | 350 kts | 205° |
| 2026-05-04 08:13 | 40.45642 | 3.40126 | 20989 ft | 350 kts | 203° |
| 2026-05-04 08:13 | 40.43256 | 3.39416 | 20494 ft | 355 kts | 190° |
| 2026-05-04 08:13 | 40.40767 | 3.39375 | 19980 ft | 358 kts | 183° |
| 2026-05-04 08:14 | 40.38278 | 3.39524 | 19480 ft | 357 kts | 182° |
| 2026-05-04 08:14 | 40.35811 | 3.39684 | 18976 ft | 355 kts | 182° |
| 2026-05-04 08:14 | 40.33348 | 3.39837 | 18489 ft | 354 kts | 182° |
| 2026-05-04 08:16 | 40.16521 | 3.40808 | 14988 ft | 339 kts | 182° |
| 2026-05-04 08:16 | 40.14174 | 3.40941 | 14640 ft | 332 kts | 181° |
| 2026-05-04 08:16 | 40.11909 | 3.41073 | 14514 ft | 319 kts | 182° |
| 2026-05-04 08:17 | 40.09739 | 3.41199 | 14377 ft | 307 kts | 182° |
| 2026-05-04 08:17 | 40.07643 | 3.41320 | 14253 ft | 295 kts | 182° |
| 2026-05-04 08:17 | 40.05632 | 3.41434 | 14127 ft | 284 kts | 182° |
| 2026-05-04 08:17 | 40.03670 | 3.41543 | 13829 ft | 281 kts | 182° |
| 2026-05-04 08:19 | 39.91872 | 3.35864 | 10628 ft | 281 kts | 229° |
| 2026-05-04 08:19 | 39.90601 | 3.33971 | 10186 ft | 281 kts | 229° |
| 2026-05-04 08:20 | 39.89314 | 3.32056 | 9745 ft | 280 kts | 229° |
| 2026-05-04 08:20 | 39.88030 | 3.30147 | 9281 ft | 279 kts | 229° |
| 2026-05-04 08:20 | 39.86755 | 3.28254 | 8829 ft | 277 kts | 229° |
| 2026-05-04 08:20 | 39.85488 | 3.26373 | 8393 ft | 275 kts | 228° |
| 2026-05-04 08:21 | 39.84230 | 3.24506 | 7962 ft | 274 kts | 228° |
| 2026-05-04 08:21 | 39.82978 | 3.22650 | 7537 ft | 272 kts | 228° |
| 2026-05-04 08:21 | 39.81731 | 3.20802 | 7099 ft | 270 kts | 228° |
| 2026-05-04 08:21 | 39.80494 | 3.18971 | 6687 ft | 269 kts | 228° |
| 2026-05-04 08:22 | 39.79263 | 3.17149 | 6269 ft | 267 kts | 228° |
| 2026-05-04 08:22 | 39.78052 | 3.15359 | 5832 ft | 266 kts | 228° |
| 2026-05-04 08:24 | 39.69901 | 3.03328 | 3971 ft | 227 kts | 228° |
| 2026-05-04 08:24 | 39.68883 | 3.01830 | 3880 ft | 215 kts | 228° |
| 2026-05-04 08:24 | 39.67918 | 3.00407 | 3786 ft | 204 kts | 227° |
| 2026-05-04 08:24 | 39.67006 | 2.99067 | 3716 ft | 192 kts | 228° |
| 2026-05-04 08:25 | 39.66138 | 2.97788 | 3622 ft | 188 kts | 227° |
| 2026-05-04 08:25 | 39.65282 | 2.96521 | 3540 ft | 190 kts | 228° |
| 2026-05-04 08:25 | 39.64544 | 2.95075 | 3385 ft | 189 kts | 239° |
| 2026-05-04 08:25 | 39.63862 | 2.93622 | 3127 ft | 187 kts | 236° |
| 2026-05-04 08:26 | 39.63176 | 2.92218 | 2871 ft | 186 kts | 236° |
| 2026-05-04 08:27 | 39.58846 | 2.83111 | 1268 ft | 144 kts | 236° |
| 2026-05-04 08:28 | 39.58333 | 2.82032 | 1082 ft | 139 kts | 236° |
| 2026-05-04 08:28 | 39.57837 | 2.80989 | 902 ft | 133 kts | 238° |
| 2026-05-04 08:28 | 39.57346 | 2.79951 | 721 ft | 137 kts | 238° |
| 2026-05-04 08:28 | 39.56852 | 2.78907 | 572 ft | 136 kts | 237° |
| 2026-05-04 08:29 | 39.56367 | 2.77869 | 325 ft | 134 kts | 237° |
| 2026-05-04 08:29 | 39.56029 | 2.77181 | 243 ft | 139 kts | 236° |
| 2026-05-04 08:29 | 39.55522 | 2.76115 | 92 ft | 136 kts | 237° |
| 2026-05-04 08:31 | 39.54668 | 2.73691 | 42 ft | 14 kts | 59° |
| 2026-05-04 08:33 | 39.55044 | 2.73802 | 42 ft | 4 kts | 240° |
| 2026-05-04 08:33 | 39.55020 | 2.73760 | 42 ft | 7 kts | 235° |